createdAt,value
2018-08-22T00:00:15.537Z,47.46
2018-08-22T00:02:43.858Z,48.25
2018-08-22T00:05:12.199Z,47.39
2018-08-22T00:07:40.639Z,47.30
2018-08-22T00:10:09.294Z,47.58
2018-08-22T00:12:37.621Z,47.33
2018-08-22T00:15:05.974Z,48.28
2018-08-22T00:17:34.298Z,48.26
2018-08-22T00:20:02.690Z,48.00
2018-08-22T00:22:31.027Z,47.86
2018-08-22T00:24:59.331Z,48.18
2018-08-22T00:27:27.629Z,48.17
2018-08-22T00:29:55.939Z,47.51
2018-08-22T00:32:24.290Z,47.35
2018-08-22T00:34:52.587Z,48.29
2018-08-22T00:37:20.901Z,48.33
2018-08-22T00:39:49.227Z,48.27
2018-08-22T00:42:17.938Z,48.19
2018-08-22T00:44:46.280Z,48.13
2018-08-22T00:47:14.675Z,47.43
2018-08-22T00:49:42.962Z,48.32
2018-08-22T00:52:11.318Z,47.97
2018-08-22T00:54:39.878Z,48.05
2018-08-22T00:57:08.191Z,47.58
2018-08-22T00:59:36.618Z,47.78
2018-08-22T01:02:04.905Z,47.49
2018-08-22T01:04:33.202Z,47.57
2018-08-22T01:07:01.517Z,48.27
2018-08-22T01:09:29.874Z,48.33
2018-08-22T01:11:58.234Z,48.34
2018-08-22T01:14:26.538Z,47.57
2018-08-22T01:16:54.838Z,47.97
2018-08-22T01:19:23.194Z,48.14
2018-08-22T01:21:51.494Z,47.63
2018-08-22T01:24:20.804Z,47.72
2018-08-22T01:26:49.090Z,47.67
2018-08-22T01:29:17.376Z,48.10
2018-08-22T01:31:45.661Z,47.55
2018-08-22T01:34:14.006Z,47.66
2018-08-22T01:36:42.271Z,47.58
2018-08-22T01:39:10.670Z,47.55
2018-08-22T01:41:38.922Z,47.96
2018-08-22T01:44:07.236Z,47.61
2018-08-22T01:46:35.522Z,47.65
2018-08-22T01:49:03.802Z,48.09
2018-08-22T01:51:32.064Z,47.48
2018-08-22T01:54:00.368Z,47.69
2018-08-22T01:56:28.701Z,47.64
2018-08-22T01:58:57.129Z,48.30
2018-08-22T02:01:25.275Z,48.09
2018-08-22T02:03:53.822Z,48.20
2018-08-22T02:06:22.093Z,48.33
2018-08-22T02:08:50.389Z,48.52
2018-08-22T02:11:18.687Z,48.49
2018-08-22T02:13:46.974Z,47.65
2018-08-22T02:16:15.316Z,48.50
2018-08-22T02:18:43.606Z,48.04
2018-08-22T02:21:11.890Z,47.75
2018-08-22T02:23:40.157Z,48.50
2018-08-22T02:26:08.406Z,48.52
2018-08-22T02:28:36.692Z,48.54
2018-08-22T02:31:05.079Z,47.59
2018-08-22T02:33:33.383Z,47.58
2018-08-22T02:36:01.674Z,47.77
2018-08-22T02:38:30.047Z,48.31
2018-08-22T02:40:58.371Z,48.46
2018-08-22T02:43:26.655Z,48.29
2018-08-22T02:45:55.114Z,48.34
2018-08-22T02:48:23.370Z,48.58
2018-08-22T02:50:51.692Z,47.85
2018-08-22T02:53:19.997Z,48.59
2018-08-22T02:55:48.295Z,47.66
2018-08-22T02:58:16.573Z,48.51
2018-08-22T03:00:44.949Z,48.56
2018-08-22T03:03:13.268Z,48.04
2018-08-22T03:05:41.566Z,48.62
2018-08-22T03:08:09.885Z,47.74
2018-08-22T03:10:38.183Z,48.21
2018-08-22T03:13:06.558Z,47.78
2018-08-22T03:15:34.914Z,47.90
2018-08-22T03:18:03.219Z,48.64
2018-08-22T03:20:31.509Z,48.58
2018-08-22T03:22:59.841Z,48.19
2018-08-22T03:25:28.474Z,47.93
2018-08-22T03:27:56.777Z,47.88
2018-08-22T03:30:25.099Z,47.85
2018-08-22T03:32:53.397Z,47.85
2018-08-22T03:35:21.715Z,48.72
2018-08-22T03:37:50.026Z,47.91
2018-08-22T03:40:18.340Z,47.87
2018-08-22T03:42:46.636Z,48.18
2018-08-22T03:45:14.942Z,48.73
2018-08-22T03:47:43.255Z,48.65
2018-08-22T03:50:11.530Z,48.65
2018-08-22T03:52:39.843Z,48.04
2018-08-22T03:55:08.207Z,48.20
2018-08-22T03:57:36.686Z,48.60
2018-08-22T04:00:05.253Z,47.63
2018-08-22T04:02:33.571Z,47.92
2018-08-22T04:05:02.071Z,47.99
2018-08-22T04:07:30.395Z,48.77
2018-08-22T04:09:58.770Z,48.31
2018-08-22T04:12:27.090Z,48.76
2018-08-22T04:14:55.465Z,48.84
2018-08-22T04:17:28.163Z,48.59
2018-08-22T04:19:59.331Z,48.68
2018-08-22T04:22:27.634Z,48.83
2018-08-22T04:24:56.013Z,48.09
2018-08-22T04:27:24.338Z,48.10
2018-08-22T04:29:59.251Z,48.03
2018-08-22T04:32:27.570Z,48.03
2018-08-22T04:34:55.958Z,48.74
2018-08-22T04:37:24.326Z,48.76
2018-08-22T04:39:52.643Z,48.13
2018-08-22T04:42:21.065Z,48.83
2018-08-22T04:44:49.728Z,47.85
2018-08-22T04:47:18.131Z,48.31
2018-08-22T04:49:46.470Z,48.71
2018-08-22T04:52:15.286Z,48.84
2018-08-22T04:54:43.679Z,48.26
2018-08-22T04:57:11.949Z,48.49
2018-08-22T04:59:40.205Z,48.73
2018-08-22T05:02:08.674Z,48.65
2018-08-22T05:04:37.067Z,48.37
2018-08-22T05:07:05.784Z,48.77
2018-08-22T05:09:34.077Z,48.75
2018-08-22T05:12:02.406Z,47.80
2018-08-22T05:14:30.808Z,47.70
2018-08-22T05:16:59.149Z,48.04
2018-08-22T05:19:27.454Z,47.04
2018-08-22T05:21:55.855Z,46.63
2018-08-22T05:24:24.242Z,47.14
2018-08-22T05:26:52.591Z,47.26
2018-08-22T05:29:20.946Z,47.73
2018-08-22T05:31:49.237Z,47.04
2018-08-22T05:34:17.635Z,47.57
2018-08-22T05:36:45.930Z,47.96
2018-08-22T05:39:14.234Z,47.92
2018-08-22T05:41:43.107Z,47.89
2018-08-22T05:44:11.414Z,47.24
2018-08-22T05:46:39.708Z,47.40
2018-08-22T05:49:08.908Z,47.84
2018-08-22T05:51:37.294Z,48.20
2018-08-22T05:54:05.576Z,47.38
2018-08-22T05:56:33.934Z,48.12
2018-08-22T05:59:02.203Z,47.41
2018-08-22T06:01:30.643Z,48.37
2018-08-22T06:03:58.954Z,48.36
2018-08-22T06:06:27.218Z,47.64
2018-08-22T06:08:55.470Z,47.65
2018-08-22T06:11:23.807Z,48.52
2018-08-22T06:13:52.066Z,48.52
2018-08-22T06:16:20.370Z,48.59
2018-08-22T06:18:48.657Z,47.73
2018-08-22T06:21:16.974Z,48.52
2018-08-22T06:23:45.282Z,48.25
2018-08-22T06:26:13.605Z,47.99
2018-08-22T06:28:41.869Z,48.01
2018-08-22T06:31:10.202Z,48.06
2018-08-22T06:33:38.502Z,47.97
2018-08-22T06:36:06.798Z,48.82
2018-08-22T06:38:35.061Z,48.53
2018-08-22T06:41:03.338Z,47.96
2018-08-22T06:43:31.658Z,47.97
2018-08-22T06:45:59.967Z,48.04
2018-08-22T06:48:28.231Z,48.86
2018-08-22T06:50:56.637Z,48.74
2018-08-22T06:53:24.951Z,48.28
2018-08-22T06:55:53.257Z,48.99
2018-08-22T06:58:21.515Z,48.31
2018-08-22T07:00:56.345Z,48.50
2018-08-22T07:03:24.607Z,48.82
2018-08-22T07:05:52.890Z,48.39
2018-08-22T07:08:21.159Z,48.02
2018-08-22T07:10:49.430Z,48.04
2018-08-22T07:13:17.737Z,48.51
2018-08-22T07:15:46.002Z,48.31
2018-08-22T07:18:14.994Z,48.64
2018-08-22T07:20:43.298Z,49.29
2018-08-22T07:23:11.575Z,48.71
2018-08-22T07:25:39.829Z,48.73
2018-08-22T07:28:08.171Z,48.88
2018-08-22T07:30:36.453Z,49.66
2018-08-22T07:33:04.778Z,49.26
2018-08-22T07:35:33.166Z,49.32
2018-08-22T07:38:01.482Z,49.78
2018-08-22T07:40:29.766Z,49.01
2018-08-22T07:42:58.038Z,48.92
2018-08-22T07:45:26.318Z,48.90
2018-08-22T07:47:54.598Z,48.90
2018-08-22T07:50:22.957Z,49.60
2018-08-22T07:52:56.474Z,48.89
2018-08-22T07:55:24.776Z,49.72
2018-08-22T07:57:53.058Z,49.68
2018-08-22T08:00:21.331Z,49.60
2018-08-22T08:02:49.643Z,49.00
2018-08-22T08:05:18.701Z,48.76
2018-08-22T08:07:46.998Z,49.53
2018-08-22T08:10:22.219Z,49.52
2018-08-22T08:12:50.595Z,48.68
2018-08-22T08:15:19.378Z,49.57
2018-08-22T08:17:47.682Z,48.77
2018-08-22T08:20:15.942Z,49.08
2018-08-22T08:22:44.235Z,48.74
2018-08-22T08:25:12.502Z,49.56
2018-08-22T08:27:40.769Z,49.46
2018-08-22T08:30:09.036Z,49.46
2018-08-22T08:32:37.307Z,48.67
2018-08-22T08:35:05.650Z,48.54
2018-08-22T08:37:33.950Z,49.15
2018-08-22T08:40:02.274Z,48.59
2018-08-22T08:42:30.610Z,48.45
2018-08-22T08:44:58.962Z,49.36
2018-08-22T08:47:27.444Z,48.60
2018-08-22T08:49:55.707Z,48.66
2018-08-22T08:52:24.027Z,49.24
2018-08-22T08:54:59.214Z,48.47
2018-08-22T08:57:27.629Z,48.53
2018-08-22T08:59:55.871Z,48.34
2018-08-22T09:02:24.431Z,48.12
2018-08-22T09:04:53.727Z,48.66
2018-08-22T09:07:22.065Z,48.98
2018-08-22T09:09:50.359Z,48.55
2018-08-22T09:12:18.732Z,48.78
2018-08-22T12:24:35.314Z,45.81
2018-08-22T12:27:03.701Z,46.35
2018-08-22T12:29:32.023Z,45.95
2018-08-22T12:32:00.351Z,46.55
2018-08-22T12:34:28.623Z,46.33
2018-08-22T12:36:56.930Z,45.50
2018-08-22T12:39:25.202Z,45.47
2018-08-22T12:41:53.507Z,46.17
2018-08-22T12:44:21.831Z,46.28
2018-08-22T12:46:50.119Z,46.21
2018-08-22T12:49:18.447Z,45.52
2018-08-22T12:51:46.762Z,46.09
2018-08-22T12:54:15.070Z,45.48
2018-08-22T12:56:43.363Z,46.13
2018-08-22T12:59:12.314Z,46.25
2018-08-22T13:01:40.583Z,46.11
2018-08-22T13:04:08.850Z,45.21
2018-08-22T13:06:37.176Z,46.22
2018-08-22T13:09:07.492Z,46.01
2018-08-22T13:11:35.760Z,45.31
2018-08-22T13:14:04.075Z,45.47
2018-08-22T13:16:32.331Z,46.16
2018-08-22T13:19:00.627Z,45.18
2018-08-22T13:21:29.074Z,46.13
2018-08-22T13:23:57.338Z,45.25
2018-08-22T13:26:25.701Z,46.41
2018-08-22T13:28:53.989Z,46.31
2018-08-22T13:31:22.341Z,45.42
2018-08-22T13:33:50.658Z,45.75
2018-08-22T13:36:19.128Z,45.65
2018-08-22T13:38:47.311Z,46.35
2018-08-22T13:41:15.623Z,46.42
2018-08-22T13:43:44.954Z,45.97
2018-08-22T13:46:13.266Z,46.33
2018-08-22T13:48:41.521Z,45.42
2018-08-22T13:51:09.800Z,46.43
2018-08-22T13:53:38.115Z,46.44
2018-08-22T13:56:06.525Z,46.15
2018-08-22T13:58:34.761Z,45.71
2018-08-22T14:01:03.283Z,45.57
2018-08-22T14:03:31.589Z,45.62
2018-08-22T14:05:59.882Z,45.48
2018-08-22T14:08:28.158Z,45.47
2018-08-22T14:10:56.433Z,45.37
2018-08-22T14:13:24.701Z,46.24
2018-08-22T14:15:53.048Z,46.30
2018-08-22T14:18:21.339Z,45.94
2018-08-22T14:20:49.658Z,45.34
2018-08-22T14:23:17.960Z,46.04
2018-08-22T14:25:46.304Z,45.84
2018-08-22T14:28:14.671Z,45.20
2018-08-22T14:30:43.031Z,45.74
2018-08-22T14:33:11.303Z,45.29
2018-08-22T14:35:39.590Z,45.39
2018-08-22T14:38:07.906Z,45.86
2018-08-22T14:40:36.196Z,45.75
2018-08-22T14:43:04.490Z,45.70
2018-08-22T14:45:32.842Z,45.68
2018-08-22T14:48:01.186Z,44.89
2018-08-22T14:50:29.511Z,45.13
2018-08-22T14:52:57.786Z,44.77
2018-08-22T14:55:26.082Z,44.79
2018-08-22T14:57:54.372Z,44.66
2018-08-22T15:00:22.729Z,45.52
2018-08-22T15:02:51.191Z,45.73
2018-08-22T15:05:19.302Z,45.59
2018-08-22T15:07:47.583Z,45.73
2018-08-22T15:10:17.515Z,44.86
2018-08-22T15:12:46.202Z,44.83
2018-08-22T15:15:14.572Z,45.20
2018-08-22T15:17:43.140Z,44.84
2018-08-22T15:20:11.451Z,44.99
2018-08-22T15:22:39.835Z,45.44
2018-08-22T15:25:08.588Z,44.91
2018-08-22T15:27:36.871Z,45.10
2018-08-22T15:30:05.698Z,45.89
2018-08-22T15:32:33.970Z,45.98
2018-08-22T15:35:02.308Z,45.28
2018-08-22T15:37:30.610Z,45.74
2018-08-22T15:39:58.899Z,46.04
2018-08-22T15:42:27.210Z,45.25
2018-08-22T15:44:55.511Z,45.91
2018-08-22T15:47:24.411Z,45.68
2018-08-22T15:49:52.615Z,45.14
2018-08-22T15:52:20.874Z,45.16
2018-08-22T15:55:04.511Z,45.71
2018-08-22T15:57:47.834Z,45.81
2018-08-22T16:00:26.144Z,45.04
2018-08-22T16:02:55.587Z,45.03
2018-08-22T16:05:23.895Z,46.08
2018-08-22T16:07:52.220Z,45.74
2018-08-22T16:10:20.539Z,45.99
2018-08-22T16:12:48.911Z,46.13
2018-08-22T16:15:17.180Z,45.40
2018-08-22T16:17:49.974Z,45.45
2018-08-22T16:20:18.343Z,45.56
2018-08-22T16:22:46.639Z,46.14
2018-08-22T16:25:14.961Z,45.37
2018-08-22T16:27:49.290Z,45.52
2018-08-22T16:30:17.709Z,46.07
2018-08-22T16:32:46.034Z,45.99
2018-08-22T16:35:14.346Z,45.15
2018-08-22T16:37:57.874Z,46.01
2018-08-22T16:40:26.170Z,46.08
2018-08-22T16:42:54.554Z,46.01
2018-08-22T16:45:22.975Z,45.76
2018-08-22T16:47:51.363Z,45.75
2018-08-22T16:50:21.584Z,45.54
2018-08-22T16:52:49.923Z,44.69
2018-08-22T16:55:20.405Z,45.00
2018-08-22T16:57:49.482Z,44.51
2018-08-22T17:00:22.270Z,44.63
2018-08-22T17:02:50.658Z,44.52
2018-08-22T17:05:18.931Z,45.12
2018-08-22T17:07:47.285Z,44.56
2018-08-22T17:10:15.618Z,44.39
2018-08-22T17:12:44.825Z,45.09
2018-08-22T17:15:13.301Z,45.33
2018-08-22T17:17:41.807Z,44.90
2018-08-22T17:20:10.515Z,44.73
2018-08-22T17:22:39.186Z,45.70
2018-08-22T17:25:07.754Z,44.77
2018-08-22T17:27:36.105Z,45.75
2018-08-22T17:30:04.435Z,45.77
2018-08-22T17:32:32.746Z,45.84
2018-08-22T17:35:01.009Z,45.16
2018-08-22T17:37:29.282Z,45.35
2018-08-22T17:39:57.530Z,46.08
2018-08-22T17:42:25.878Z,45.47
2018-08-22T17:44:54.126Z,46.32
2018-08-22T17:47:22.410Z,46.41
2018-08-22T17:50:01.813Z,46.49
2018-08-22T17:52:30.218Z,46.00
2018-08-22T17:54:58.490Z,46.71
2018-08-22T17:57:26.827Z,45.88
2018-08-22T17:59:56.938Z,46.41
2018-08-22T18:02:25.282Z,46.20
2018-08-22T18:05:05.245Z,46.40
2018-08-22T18:07:34.486Z,47.15
2018-08-22T18:10:03.420Z,47.32
2018-08-22T18:12:31.834Z,47.12
2018-08-22T18:15:01.912Z,46.53
2018-08-22T18:17:30.221Z,47.22
2018-08-22T18:19:58.654Z,47.21
2018-08-22T18:22:28.931Z,46.54
2018-08-22T18:24:57.845Z,46.33
2018-08-22T18:27:26.364Z,46.38
2018-08-22T18:29:54.647Z,47.31
2018-08-22T18:32:22.951Z,47.41
2018-08-22T18:35:00.658Z,47.63
2018-08-22T18:37:29.899Z,47.39
2018-08-22T18:40:10.089Z,47.15
2018-08-22T18:42:38.550Z,46.33
2018-08-22T18:45:07.087Z,46.73
2018-08-22T18:47:36.117Z,47.01
2018-08-22T18:50:04.487Z,46.92
2018-08-22T18:52:32.942Z,46.65
2018-08-22T18:55:01.945Z,47.19
2018-08-22T18:57:30.331Z,46.26
2018-08-22T18:59:58.891Z,46.29
2018-08-22T19:02:27.218Z,47.04
2018-08-22T19:04:57.498Z,46.48
2018-08-22T19:07:25.826Z,47.10
2018-08-22T19:09:54.265Z,46.21
2018-08-22T19:12:22.549Z,47.27
2018-08-22T19:14:50.846Z,46.83
2018-08-22T19:17:19.149Z,46.53
2018-08-22T19:19:48.536Z,46.61
2018-08-22T19:22:17.942Z,47.38
2018-08-22T19:25:04.390Z,46.95
2018-08-22T19:27:33.825Z,46.73
2018-08-22T19:30:02.861Z,46.64
2018-08-22T19:32:31.204Z,47.09
2018-08-22T19:34:59.498Z,47.07
2018-08-22T19:37:27.886Z,47.47
2018-08-22T19:40:02.767Z,47.37
2018-08-22T19:42:32.220Z,47.43
2018-08-22T19:45:00.629Z,47.62
2018-08-22T19:47:28.943Z,47.56
2018-08-22T19:49:57.422Z,46.75
2018-08-22T19:52:25.754Z,47.68
2018-08-22T19:54:54.086Z,47.80
2018-08-22T19:57:40.081Z,47.20
2018-08-22T20:00:10.027Z,47.21
2018-08-22T20:02:38.407Z,48.48
2018-08-22T20:05:07.835Z,47.90
2018-08-22T20:07:36.282Z,48.75
2018-08-22T20:10:04.725Z,48.35
2018-08-22T20:12:40.990Z,47.84
2018-08-22T20:15:09.458Z,48.55
2018-08-22T20:17:37.741Z,48.55
2018-08-22T20:20:07.013Z,48.38
2018-08-22T20:22:41.170Z,48.69
2018-08-22T20:25:09.823Z,48.50
2018-08-22T20:27:38.222Z,47.99
2018-08-22T20:30:12.378Z,48.75
2018-08-22T20:33:03.431Z,48.36
2018-08-22T20:35:36.738Z,49.13
2018-08-22T20:38:06.543Z,48.64
2018-08-22T20:40:34.834Z,49.19
2018-08-22T20:43:03.143Z,48.53
2018-08-22T20:45:34.250Z,48.94
2018-08-22T20:48:08.296Z,48.81
2018-08-22T20:50:40.791Z,49.38
2018-08-22T20:53:10.388Z,48.47
2018-08-22T20:55:38.789Z,48.47
2018-08-22T20:58:07.146Z,49.30
2018-08-22T21:00:36.556Z,49.27
2018-08-22T21:03:04.963Z,48.99
2018-08-22T21:05:33.206Z,49.21
2018-08-22T21:08:01.640Z,48.57
2018-08-22T21:10:30.342Z,48.35
2018-08-22T21:12:58.630Z,49.32
2018-08-22T21:15:26.938Z,49.31
2018-08-22T21:17:55.253Z,49.05
2018-08-22T21:20:24.602Z,49.58
2018-08-22T21:22:53.755Z,49.38
2018-08-22T21:25:22.230Z,48.58
2018-08-22T21:27:51.191Z,49.20
2018-08-22T21:30:19.636Z,49.08
2018-08-22T21:35:47.566Z,49.54
2018-08-22T21:38:19.331Z,49.38
2018-08-22T21:40:48.751Z,48.90
2018-08-22T21:43:17.210Z,49.32
2018-08-22T21:45:48.179Z,49.74
2018-08-22T21:48:19.402Z,49.70
2018-08-22T21:50:47.881Z,49.20
2018-08-22T21:53:16.459Z,48.88
2018-08-22T21:55:48.150Z,49.59
2018-08-22T21:58:16.512Z,48.92
2018-08-22T22:00:45.083Z,49.24
2018-08-22T22:03:14.070Z,49.71
2018-08-22T22:05:56.103Z,48.79
2018-08-22T22:08:24.758Z,48.88
2018-08-22T22:11:01.160Z,49.67
2018-08-22T22:13:29.900Z,49.60
2018-08-22T22:15:59.231Z,48.88
2018-08-22T22:18:27.789Z,49.52
2018-08-22T22:21:12.351Z,48.98
2018-08-22T22:23:49.090Z,48.91
2018-08-22T22:26:18.451Z,49.55
2018-08-22T22:28:46.849Z,49.68
2018-08-22T22:31:16.430Z,48.96
2018-08-22T22:33:57.948Z,49.49
2018-08-22T22:36:26.319Z,49.37
2018-08-22T22:38:54.763Z,49.08
2018-08-22T22:41:25.747Z,50.03
2018-08-22T22:43:54.170Z,49.86
2018-08-22T22:46:22.611Z,49.88
2018-08-22T22:48:50.926Z,49.28
2018-08-22T22:51:19.354Z,49.37
2018-08-22T22:53:47.746Z,49.69
2018-08-22T22:56:16.163Z,50.08
2018-08-22T22:58:44.504Z,49.80
2018-08-22T23:01:13.756Z,49.35
2018-08-22T23:03:42.389Z,50.17
2018-08-22T23:06:10.737Z,50.13
2018-08-22T23:08:39.061Z,49.20
2018-08-22T23:11:07.399Z,49.61
2018-08-22T23:13:35.787Z,49.28
2018-08-22T23:16:04.156Z,49.65
2018-08-22T23:18:32.486Z,50.00
2018-08-22T23:21:01.105Z,49.20
2018-08-22T23:23:36.875Z,49.57
2018-08-22T23:26:12.627Z,49.40
2018-08-22T23:28:41.493Z,50.21
2018-08-22T23:31:09.843Z,50.02
2018-08-22T23:33:38.219Z,49.72
2018-08-22T23:36:06.684Z,50.31
2018-08-22T23:38:36.679Z,49.45
2018-08-22T23:41:05.036Z,50.38
2018-08-22T23:43:39.146Z,50.32
2018-08-22T23:46:08.400Z,49.62
2018-08-22T23:48:37.274Z,49.58
2018-08-22T23:51:07.847Z,50.24
2018-08-22T23:53:52.462Z,49.46
2018-08-22T23:56:23.378Z,49.52
2018-08-22T23:58:52.168Z,49.64
